sensor_id;sensor_type;location;lat;lon;timestamp;pressure;altitude;pressure_sealevel;temperature;humidity
49945;BME280;35838;49.134;9.212;2024-02-23T00:00:59;97863.25;;;7.47;100.00
49945;BME280;35838;49.134;9.212;2024-02-23T00:02:33;97858.94;;;7.47;100.00
49945;BME280;35838;49.134;9.212;2024-02-23T00:04:04;97855.25;;;7.58;100.00
49945;BME280;35838;49.134;9.212;2024-02-23T00:05:38;97862.38;;;7.48;100.00
49945;BME280;35838;49.134;9.212;2024-02-23T00:07:09;97860.63;;;7.48;100.00
49945;BME280;35838;49.134;9.212;2024-02-23T00:08:42;97865.06;;;7.43;100.00
49945;BME280;35838;49.134;9.212;2024-02-23T00:10:16;97872.59;;;7.52;100.00
49945;BME280;35838;49.134;9.212;2024-02-23T00:11:50;97875.41;;;7.42;100.00
49945;BME280;35838;49.134;9.212;2024-02-23T00:13:21;97866.66;;;7.47;100.00
49945;BME280;35838;49.134;9.212;2024-02-23T00:14:55;97888.41;;;7.37;100.00
49945;BME280;35838;49.134;9.212;2024-02-23T00:16:28;97877.19;;;7.40;100.00
49945;BME280;35838;49.134;9.212;2024-02-23T00:17:59;97880.78;;;7.34;100.00
49945;BME280;35838;49.134;9.212;2024-02-23T00:19:34;97900.31;;;7.44;100.00
49945;BME280;35838;49.134;9.212;2024-02-23T00:21:05;97898.63;;;7.43;100.00
49945;BME280;35838;49.134;9.212;2024-02-23T00:22:39;97897.84;;;7.40;100.00
49945;BME280;35838;49.134;9.212;2024-02-23T00:24:10;97881.38;;;7.44;100.00
49945;BME280;35838;49.134;9.212;2024-02-23T00:25:46;97886.66;;;7.39;100.00
49945;BME280;35838;49.134;9.212;2024-02-23T00:27:17;97889.09;;;7.45;100.00
49945;BME280;35838;49.134;9.212;2024-02-23T00:28:51;97907.25;;;7.42;100.00
49945;BME280;35838;49.134;9.212;2024-02-23T00:30:22;97886.50;;;7.45;100.00
49945;BME280;35838;49.134;9.212;2024-02-23T00:31:55;97884.84;;;7.44;100.00
49945;BME280;35838;49.134;9.212;2024-02-23T00:33:26;97885.72;;;7.43;100.00
49945;BME280;35838;49.134;9.212;2024-02-23T00:35:00;97884.69;;;7.50;100.00
49945;BME280;35838;49.134;9.212;2024-02-23T00:36:31;97880.56;;;7.43;100.00
49945;BME280;35838;49.134;9.212;2024-02-23T00:38:04;97891.59;;;7.48;100.00
49945;BME280;35838;49.134;9.212;2024-02-23T00:39:35;97892.75;;;7.36;100.00
49945;BME280;35838;49.134;9.212;2024-02-23T00:41:12;97916.69;;;7.42;100.00
49945;BME280;35838;49.134;9.212;2024-02-23T00:42:43;97914.88;;;7.47;100.00
49945;BME280;35838;49.134;9.212;2024-02-23T00:44:16;97907.09;;;7.48;100.00
49945;BME280;35838;49.134;9.212;2024-02-23T00:45:47;97910.56;;;7.47;100.00
49945;BME280;35838;49.134;9.212;2024-02-23T00:47:21;97911.53;;;7.43;100.00
49945;BME280;35838;49.134;9.212;2024-02-23T00:48:52;97901.25;;;7.40;100.00
49945;BME280;35838;49.134;9.212;2024-02-23T00:50:26;97914.31;;;7.34;100.00
49945;BME280;35838;49.134;9.212;2024-02-23T00:51:57;97931.34;;;7.41;100.00
49945;BME280;35838;49.134;9.212;2024-02-23T00:53:31;97913.97;;;7.49;100.00
49945;BME280;35838;49.134;9.212;2024-02-23T00:55:02;97921.75;;;7.46;100.00
49945;BME280;35838;49.134;9.212;2024-02-23T00:56:39;97907.31;;;7.39;100.00
49945;BME280;35838;49.134;9.212;2024-02-23T00:58:12;97932.38;;;7.34;100.00
49945;BME280;35838;49.134;9.212;2024-02-23T00:59:46;97923.88;;;7.30;100.00
49945;BME280;35838;49.134;9.212;2024-02-23T01:01:17;97924.75;;;7.29;100.00
49945;BME280;35838;49.134;9.212;2024-02-23T01:02:51;97916.22;;;7.26;100.00
49945;BME280;35838;49.134;9.212;2024-02-23T01:04:22;97919.53;;;7.31;100.00
49945;BME280;35838;49.134;9.212;2024-02-23T01:05:56;97924.56;;;7.37;100.00
49945;BME280;35838;49.134;9.212;2024-02-23T01:07:27;97934.81;;;7.40;100.00
49945;BME280;35838;49.134;9.212;2024-02-23T01:09:00;97939.91;;;7.43;100.00
49945;BME280;35838;49.134;9.212;2024-02-23T01:10:31;97945.88;;;7.45;100.00
49945;BME280;35838;49.134;9.212;2024-02-23T01:12:08;97949.78;;;7.26;100.00
49945;BME280;35838;49.134;9.212;2024-02-23T01:13:39;97948.88;;;7.27;100.00
49945;BME280;35838;49.134;9.212;2024-02-23T01:15:13;97939.56;;;7.19;100.00
49945;BME280;35838;49.134;9.212;2024-02-23T01:16:44;97948.19;;;7.18;100.00
49945;BME280;35838;49.134;9.212;2024-02-23T01:18:17;97936.19;;;7.17;100.00
49945;BME280;35838;49.134;9.212;2024-02-23T01:19:48;97930.94;;;7.22;100.00
49945;BME280;35838;49.134;9.212;2024-02-23T01:21:22;97936.78;;;7.29;100.00
49945;BME280;35838;49.134;9.212;2024-02-23T01:22:53;97954.06;;;7.27;100.00
49945;BME280;35838;49.134;9.212;2024-02-23T01:24:27;97933.59;;;7.17;100.00
49945;BME280;35838;49.134;9.212;2024-02-23T01:25:59;97926.75;;;7.16;100.00
49945;BME280;35838;49.134;9.212;2024-02-23T01:27:35;97929.38;;;7.13;100.00
49945;BME280;35838;49.134;9.212;2024-02-23T01:29:08;97935.38;;;7.15;100.00
49945;BME280;35838;49.134;9.212;2024-02-23T01:30:41;97931.13;;;7.11;100.00
49945;BME280;35838;49.134;9.212;2024-02-23T01:32:12;97921.78;;;7.05;100.00
49945;BME280;35838;49.134;9.212;2024-02-23T01:33:46;97928.34;;;7.20;100.00
49945;BME280;35838;49.134;9.212;2024-02-23T01:35:17;97932.59;;;7.25;100.00
49945;BME280;35838;49.134;9.212;2024-02-23T01:36:51;97936.88;;;7.26;100.00
49945;BME280;35838;49.134;9.212;2024-02-23T01:38:25;97956.00;;;7.15;100.00
49945;BME280;35838;49.134;9.212;2024-02-23T01:40:01;97965.44;;;7.16;100.00
49945;BME280;35838;49.134;9.212;2024-02-23T01:41:35;97957.72;;;7.15;100.00
49945;BME280;35838;49.134;9.212;2024-02-23T01:43:08;97961.09;;;7.18;100.00
49945;BME280;35838;49.134;9.212;2024-02-23T01:44:42;97958.00;;;7.02;100.00
49945;BME280;35838;49.134;9.212;2024-02-23T01:46:13;97964.81;;;7.05;100.00
49945;BME280;35838;49.134;9.212;2024-02-23T01:47:49;97960.56;;;7.02;100.00
49945;BME280;35838;49.134;9.212;2024-02-23T01:49:20;97971.69;;;7.06;100.00
49945;BME280;35838;49.134;9.212;2024-02-23T01:51:00;97944.97;;;7.09;100.00
49945;BME280;35838;49.134;9.212;2024-02-23T01:52:34;97957.03;;;7.08;100.00
49945;BME280;35838;49.134;9.212;2024-02-23T01:54:05;97971.72;;;7.03;100.00
49945;BME280;35838;49.134;9.212;2024-02-23T01:55:39;97965.66;;;7.05;100.00
49945;BME280;35838;49.134;9.212;2024-02-23T01:57:11;97981.16;;;7.04;100.00
49945;BME280;35838;49.134;9.212;2024-02-23T01:58:47;97988.97;;;7.01;100.00
49945;BME280;35838;49.134;9.212;2024-02-23T02:00:19;97982.13;;;7.00;100.00
49945;BME280;35838;49.134;9.212;2024-02-23T02:01:53;97996.88;;;6.93;100.00
49945;BME280;35838;49.134;9.212;2024-02-23T02:03:24;97972.75;;;6.96;100.00
49945;BME280;35838;49.134;9.212;2024-02-23T02:04:58;97974.63;;;6.87;100.00
49945;BME280;35838;49.134;9.212;2024-02-23T02:06:29;97985.63;;;6.96;100.00
49945;BME280;35838;49.134;9.212;2024-02-23T02:08:03;97990.94;;;6.89;100.00
49945;BME280;35838;49.134;9.212;2024-02-23T02:09:34;97979.47;;;7.03;100.00
49945;BME280;35838;49.134;9.212;2024-02-23T02:11:08;97970.16;;;6.96;100.00
49945;BME280;35838;49.134;9.212;2024-02-23T02:12:42;97973.75;;;6.88;100.00
49945;BME280;35838;49.134;9.212;2024-02-23T02:14:15;97988.19;;;6.97;100.00
49945;BME280;35838;49.134;9.212;2024-02-23T02:15:49;97987.53;;;6.87;100.00
49945;BME280;35838;49.134;9.212;2024-02-23T02:17:20;97989.19;;;6.90;100.00
49945;BME280;35838;49.134;9.212;2024-02-23T02:18:54;97991.66;;;6.95;100.00
49945;BME280;35838;49.134;9.212;2024-02-23T02:20:27;97998.53;;;6.96;100.00
49945;BME280;35838;49.134;9.212;2024-02-23T02:21:58;97996.03;;;6.91;100.00
49945;BME280;35838;49.134;9.212;2024-02-23T02:23:32;97998.56;;;6.94;100.00
49945;BME280;35838;49.134;9.212;2024-02-23T02:25:03;98014.09;;;6.91;100.00
49945;BME280;35838;49.134;9.212;2024-02-23T02:26:37;98003.72;;;6.94;100.00
49945;BME280;35838;49.134;9.212;2024-02-23T02:28:08;98003.03;;;6.86;100.00
49945;BME280;35838;49.134;9.212;2024-02-23T02:29:44;98028.81;;;6.84;100.00
49945;BME280;35838;49.134;9.212;2024-02-23T02:31:15;98022.69;;;6.92;100.00
49945;BME280;35838;49.134;9.212;2024-02-23T02:32:49;98016.59;;;6.96;100.00
49945;BME280;35838;49.134;9.212;2024-02-23T02:34:20;98023.31;;;7.04;100.00
49945;BME280;35838;49.134;9.212;2024-02-23T02:35:53;98014.75;;;7.02;100.00
49945;BME280;35838;49.134;9.212;2024-02-23T02:37:27;98029.22;;;7.10;100.00
49945;BME280;35838;49.134;9.212;2024-02-23T02:38:58;98018.81;;;7.14;100.00
49945;BME280;35838;49.134;9.212;2024-02-23T02:40:32;98018.91;;;7.10;100.00
49945;BME280;35838;49.134;9.212;2024-02-23T02:42:03;98015.41;;;7.12;100.00
49945;BME280;35838;49.134;9.212;2024-02-23T02:43:37;98030.81;;;7.15;100.00
49945;BME280;35838;49.134;9.212;2024-02-23T02:45:10;98015.66;;;7.00;100.00
49945;BME280;35838;49.134;9.212;2024-02-23T02:46:44;98021.00;;;6.90;100.00
49945;BME280;35838;49.134;9.212;2024-02-23T02:48:16;98030.28;;;6.99;100.00
49945;BME280;35838;49.134;9.212;2024-02-23T02:49:50;98017.72;;;6.82;100.00
49945;BME280;35838;49.134;9.212;2024-02-23T02:51:21;98039.16;;;6.84;100.00
49945;BME280;35838;49.134;9.212;2024-02-23T02:52:55;98038.44;;;6.78;100.00
49945;BME280;35838;49.134;9.212;2024-02-23T02:54:26;98028.28;;;6.68;100.00
49945;BME280;35838;49.134;9.212;2024-02-23T02:55:59;98016.41;;;6.61;100.00
49945;BME280;35838;49.134;9.212;2024-02-23T02:57:30;98023.97;;;6.69;100.00
49945;BME280;35838;49.134;9.212;2024-02-23T02:59:04;98018.69;;;6.77;100.00
49945;BME280;35838;49.134;9.212;2024-02-23T03:00:38;98023.13;;;6.68;100.00
49945;BME280;35838;49.134;9.212;2024-02-23T03:02:11;98015.19;;;6.79;100.00
49945;BME280;35838;49.134;9.212;2024-02-23T03:03:42;98018.56;;;6.83;100.00
49945;BME280;35838;49.134;9.212;2024-02-23T03:05:16;98018.28;;;6.97;100.00
49945;BME280;35838;49.134;9.212;2024-02-23T03:06:47;98028.72;;;6.90;100.00
49945;BME280;35838;49.134;9.212;2024-02-23T03:08:20;98026.06;;;6.94;100.00
49945;BME280;35838;49.134;9.212;2024-02-23T03:09:51;98037.03;;;7.05;100.00
49945;BME280;35838;49.134;9.212;2024-02-23T03:11:25;98032.97;;;6.93;100.00
49945;BME280;35838;49.134;9.212;2024-02-23T03:12:56;98031.13;;;7.00;100.00
49945;BME280;35838;49.134;9.212;2024-02-23T03:14:30;98027.78;;;6.95;100.00
49945;BME280;35838;49.134;9.212;2024-02-23T03:16:03;98030.31;;;6.98;100.00
49945;BME280;35838;49.134;9.212;2024-02-23T03:17:37;98044.44;;;6.78;100.00
49945;BME280;35838;49.134;9.212;2024-02-23T03:19:08;98040.16;;;6.77;100.00
49945;BME280;35838;49.134;9.212;2024-02-23T03:20:41;98054.66;;;6.83;100.00
49945;BME280;35838;49.134;9.212;2024-02-23T03:22:12;98044.38;;;6.81;100.00
49945;BME280;35838;49.134;9.212;2024-02-23T03:23:46;98045.03;;;6.91;100.00
49945;BME280;35838;49.134;9.212;2024-02-23T03:25:17;98035.50;;;6.95;100.00
49945;BME280;35838;49.134;9.212;2024-02-23T03:26:51;98029.56;;;6.91;100.00
49945;BME280;35838;49.134;9.212;2024-02-23T03:28:22;98041.00;;;6.76;100.00
49945;BME280;35838;49.134;9.212;2024-02-23T03:29:55;98039.41;;;6.70;100.00
49945;BME280;35838;49.134;9.212;2024-02-23T03:31:29;98041.09;;;6.73;100.00
49945;BME280;35838;49.134;9.212;2024-02-23T03:33:02;98025.66;;;6.70;100.00
49945;BME280;35838;49.134;9.212;2024-02-23T03:34:33;98022.78;;;6.87;100.00
49945;BME280;35838;49.134;9.212;2024-02-23T03:36:07;98022.75;;;6.88;100.00
49945;BME280;35838;49.134;9.212;2024-02-23T03:37:38;98026.28;;;6.83;100.00
49945;BME280;35838;49.134;9.212;2024-02-23T03:39:12;98021.13;;;6.83;100.00
49945;BME280;35838;49.134;9.212;2024-02-23T03:40:43;98012.56;;;6.81;100.00
49945;BME280;35838;49.134;9.212;2024-02-23T03:42:17;98021.25;;;6.77;100.00
49945;BME280;35838;49.134;9.212;2024-02-23T03:43:48;98027.31;;;6.74;100.00
49945;BME280;35838;49.134;9.212;2024-02-23T03:45:21;98036.66;;;6.81;100.00
49945;BME280;35838;49.134;9.212;2024-02-23T03:46:55;98034.09;;;6.78;100.00
49945;BME280;35838;49.134;9.212;2024-02-23T03:48:28;98021.00;;;6.90;100.00
49945;BME280;35838;49.134;9.212;2024-02-23T03:49:59;98022.63;;;6.96;100.00
49945;BME280;35838;49.134;9.212;2024-02-23T03:51:33;98013.53;;;6.75;100.00
49945;BME280;35838;49.134;9.212;2024-02-23T03:53:07;98010.94;;;6.75;100.00
49945;BME280;35838;49.134;9.212;2024-02-23T03:54:40;98018.72;;;6.73;100.00
49945;BME280;35838;49.134;9.212;2024-02-23T03:56:11;98019.59;;;6.72;100.00
49945;BME280;35838;49.134;9.212;2024-02-23T03:57:45;98041.97;;;6.72;100.00
49945;BME280;35838;49.134;9.212;2024-02-23T03:59:16;98052.47;;;6.61;100.00
49945;BME280;35838;49.134;9.212;2024-02-23T04:00:50;98042.19;;;6.59;100.00
49945;BME280;35838;49.134;9.212;2024-02-23T04:02:23;98032.03;;;6.50;100.00
49945;BME280;35838;49.134;9.212;2024-02-23T04:03:57;98038.72;;;6.61;100.00
49945;BME280;35838;49.134;9.212;2024-02-23T04:05:28;98041.31;;;6.61;100.00
49945;BME280;35838;49.134;9.212;2024-02-23T04:07:02;98041.25;;;6.62;100.00
49945;BME280;35838;49.134;9.212;2024-02-23T04:08:33;98044.84;;;6.56;100.00
49945;BME280;35838;49.134;9.212;2024-02-23T04:10:07;98048.91;;;6.67;100.00
49945;BME280;35838;49.134;9.212;2024-02-23T04:11:38;98053.03;;;6.77;100.00
49945;BME280;35838;49.134;9.212;2024-02-23T04:13:12;98054.97;;;6.64;100.00
49945;BME280;35838;49.134;9.212;2024-02-23T04:14:44;98056.03;;;6.54;100.00
49945;BME280;35838;49.134;9.212;2024-02-23T04:16:17;98061.00;;;6.63;100.00
49945;BME280;35838;49.134;9.212;2024-02-23T04:17:51;98060.19;;;6.63;100.00
49945;BME280;35838;49.134;9.212;2024-02-23T04:19:25;98052.53;;;6.58;100.00
49945;BME280;35838;49.134;9.212;2024-02-23T04:20:56;98053.44;;;6.54;100.00
49945;BME280;35838;49.134;9.212;2024-02-23T04:22:29;98050.03;;;6.53;100.00
49945;BME280;35838;49.134;9.212;2024-02-23T04:24:00;98037.22;;;6.49;100.00
49945;BME280;35838;49.134;9.212;2024-02-23T04:27:14;98037.09;;;6.55;100.00
49945;BME280;35838;49.134;9.212;2024-02-23T04:28:48;98056.59;;;6.70;100.00
49945;BME280;35838;49.134;9.212;2024-02-23T04:30:19;98048.13;;;6.65;100.00
49945;BME280;35838;49.134;9.212;2024-02-23T04:31:53;98041.19;;;6.68;100.00
49945;BME280;35838;49.134;9.212;2024-02-23T04:33:26;98046.34;;;6.67;100.00
49945;BME280;35838;49.134;9.212;2024-02-23T04:35:00;98047.22;;;6.66;100.00
49945;BME280;35838;49.134;9.212;2024-02-23T04:36:31;98052.28;;;6.70;100.00
49945;BME280;35838;49.134;9.212;2024-02-23T04:38:05;98050.41;;;6.80;100.00
49945;BME280;35838;49.134;9.212;2024-02-23T04:39:36;98054.78;;;6.75;100.00
49945;BME280;35838;49.134;9.212;2024-02-23T04:41:12;98052.25;;;6.73;100.00
49945;BME280;35838;49.134;9.212;2024-02-23T04:42:43;98045.63;;;6.58;100.00
49945;BME280;35838;49.134;9.212;2024-02-23T04:44:18;98037.09;;;6.56;100.00
49945;BME280;35838;49.134;9.212;2024-02-23T04:45:49;98040.47;;;6.58;100.00
49945;BME280;35838;49.134;9.212;2024-02-23T04:47:22;98045.75;;;6.52;100.00
49945;BME280;35838;49.134;9.212;2024-02-23T04:48:56;98053.47;;;6.52;100.00
49945;BME280;35838;49.134;9.212;2024-02-23T04:50:29;98045.03;;;6.44;100.00
49945;BME280;35838;49.134;9.212;2024-02-23T04:52:00;98041.53;;;6.47;100.00
49945;BME280;35838;49.134;9.212;2024-02-23T04:53:36;98036.16;;;6.61;100.00
49945;BME280;35838;49.134;9.212;2024-02-23T04:55:09;98041.41;;;6.54;100.00
49945;BME280;35838;49.134;9.212;2024-02-23T04:56:40;98045.50;;;6.66;100.00
49945;BME280;35838;49.134;9.212;2024-02-23T04:58:14;98053.28;;;6.63;100.00
49945;BME280;35838;49.134;9.212;2024-02-23T04:59:45;98043.88;;;6.61;100.00
49945;BME280;35838;49.134;9.212;2024-02-23T05:01:19;98042.06;;;6.67;100.00
49945;BME280;35838;49.134;9.212;2024-02-23T05:02:50;98040.47;;;6.58;100.00
49945;BME280;35838;49.134;9.212;2024-02-23T05:04:26;98041.41;;;6.54;100.00
49945;BME280;35838;49.134;9.212;2024-02-23T05:05:57;98051.44;;;6.70;100.00
49945;BME280;35838;49.134;9.212;2024-02-23T05:07:31;98041.97;;;6.70;100.00
49945;BME280;35838;49.134;9.212;2024-02-23T05:09:02;98049.22;;;6.50;100.00
49945;BME280;35838;49.134;9.212;2024-02-23T05:10:39;98046.88;;;6.36;100.00
49945;BME280;35838;49.134;9.212;2024-02-23T05:12:10;98040.00;;;6.38;100.00
49945;BME280;35838;49.134;9.212;2024-02-23T05:13:44;98039.09;;;6.40;100.00
49945;BME280;35838;49.134;9.212;2024-02-23T05:15:15;98039.91;;;6.41;100.00
49945;BME280;35838;49.134;9.212;2024-02-23T05:16:48;98040.59;;;6.52;100.00
49945;BME280;35838;49.134;9.212;2024-02-23T05:18:19;98038.59;;;6.68;100.00
49945;BME280;35838;49.134;9.212;2024-02-23T05:19:56;98035.16;;;6.69;100.00
49945;BME280;35838;49.134;9.212;2024-02-23T05:21:27;98036.81;;;6.72;100.00
49945;BME280;35838;49.134;9.212;2024-02-23T05:23:00;98045.25;;;6.80;100.00
49945;BME280;35838;49.134;9.212;2024-02-23T05:24:31;98042.56;;;6.86;100.00
49945;BME280;35838;49.134;9.212;2024-02-23T05:26:05;98035.06;;;6.72;100.00
49945;BME280;35838;49.134;9.212;2024-02-23T05:27:36;98039.47;;;6.67;100.00
49945;BME280;35838;49.134;9.212;2024-02-23T05:29:10;98044.31;;;6.84;100.00
49945;BME280;35838;49.134;9.212;2024-02-23T05:30:42;98046.97;;;6.81;100.00
49945;BME280;35838;49.134;9.212;2024-02-23T05:32:16;98051.41;;;6.73;100.00
49945;BME280;35838;49.134;9.212;2024-02-23T05:33:47;98045.38;;;6.74;100.00
49945;BME280;35838;49.134;9.212;2024-02-23T05:35:24;98046.09;;;6.82;100.00
49945;BME280;35838;49.134;9.212;2024-02-23T05:36:55;98047.16;;;6.69;100.00
49945;BME280;35838;49.134;9.212;2024-02-23T05:38:28;98043.88;;;6.61;100.00
49945;BME280;35838;49.134;9.212;2024-02-23T05:39:59;98046.13;;;6.79;100.00
49945;BME280;35838;49.134;9.212;2024-02-23T05:41:35;98047.94;;;6.74;100.00
49945;BME280;35838;49.134;9.212;2024-02-23T05:43:06;98058.34;;;6.68;100.00
49945;BME280;35838;49.134;9.212;2024-02-23T05:44:39;98054.31;;;6.54;100.00
49945;BME280;35838;49.134;9.212;2024-02-23T05:46:13;98052.75;;;6.44;100.00
49945;BME280;35838;49.134;9.212;2024-02-23T05:47:47;98058.91;;;6.35;100.00
49945;BME280;35838;49.134;9.212;2024-02-23T05:49:21;98057.16;;;6.39;100.00
49945;BME280;35838;49.134;9.212;2024-02-23T05:50:57;98056.03;;;6.54;100.00
49945;BME280;35838;49.134;9.212;2024-02-23T05:52:28;98062.09;;;6.51;100.00
49945;BME280;35838;49.134;9.212;2024-02-23T05:54:02;98059.47;;;6.54;100.00
49945;BME280;35838;49.134;9.212;2024-02-23T05:55:33;98064.66;;;6.51;100.00
49945;BME280;35838;49.134;9.212;2024-02-23T05:57:06;98065.38;;;6.59;100.00
49945;BME280;35838;49.134;9.212;2024-02-23T05:58:37;98060.44;;;6.47;100.00
49945;BME280;35838;49.134;9.212;2024-02-23T06:00:12;98058.00;;;6.39;100.00
49945;BME280;35838;49.134;9.212;2024-02-23T06:01:43;98052.59;;;6.53;100.00
49945;BME280;35838;49.134;9.212;2024-02-23T06:03:17;98062.13;;;6.48;100.00
49945;BME280;35838;49.134;9.212;2024-02-23T06:04:49;98058.75;;;6.46;100.00
49945;BME280;35838;49.134;9.212;2024-02-23T06:06:25;98057.84;;;6.49;100.00
49945;BME280;35838;49.134;9.212;2024-02-23T06:07:56;98054.94;;;6.66;100.00
49945;BME280;35838;49.134;9.212;2024-02-23T06:09:30;98058.28;;;6.74;100.00
49945;BME280;35838;49.134;9.212;2024-02-23T06:11:01;98068.66;;;6.68;100.00
49945;BME280;35838;49.134;9.212;2024-02-23T06:12:35;98059.22;;;6.68;100.00
49945;BME280;35838;49.134;9.212;2024-02-23T06:14:06;98062.09;;;6.51;100.00
49945;BME280;35838;49.134;9.212;2024-02-23T06:15:39;98059.31;;;6.64;100.00
49945;BME280;35838;49.134;9.212;2024-02-23T06:17:11;98064.31;;;6.71;100.00
49945;BME280;35838;49.134;9.212;2024-02-23T06:18:44;98072.75;;;6.80;100.00
49945;BME280;35838;49.134;9.212;2024-02-23T06:20:15;98076.06;;;6.86;100.00
49945;BME280;35838;49.134;9.212;2024-02-23T06:21:53;98077.88;;;6.83;100.00
49945;BME280;35838;49.134;9.212;2024-02-23T06:23:24;98074.28;;;6.92;100.00
49945;BME280;35838;49.134;9.212;2024-02-23T06:24:57;98078.69;;;6.83;100.00
49945;BME280;35838;49.134;9.212;2024-02-23T06:26:28;98084.78;;;6.81;100.00
49945;BME280;35838;49.134;9.212;2024-02-23T06:28:02;98088.09;;;6.87;100.00
49945;BME280;35838;49.134;9.212;2024-02-23T06:29:33;98090.56;;;6.94;100.00
49945;BME280;35838;49.134;9.212;2024-02-23T06:31:07;98095.72;;;6.94;100.00
49945;BME280;35838;49.134;9.212;2024-02-23T06:32:38;98095.78;;;6.89;100.00
49945;BME280;35838;49.134;9.212;2024-02-23T06:34:11;98099.13;;;6.96;100.00
49945;BME280;35838;49.134;9.212;2024-02-23T06:35:42;98101.66;;;6.97;100.00
49945;BME280;35838;49.134;9.212;2024-02-23T06:37:19;98098.06;;;7.06;100.00
49945;BME280;35838;49.134;9.212;2024-02-23T06:38:50;98101.63;;;7.00;100.00
49945;BME280;35838;49.134;9.212;2024-02-23T06:40:23;98102.41;;;7.04;100.00
49945;BME280;35838;49.134;9.212;2024-02-23T06:41:54;98090.47;;;7.00;100.00
49945;BME280;35838;49.134;9.212;2024-02-23T06:43:28;98104.94;;;7.05;100.00
49945;BME280;35838;49.134;9.212;2024-02-23T06:44:59;98105.81;;;7.06;100.00
49945;BME280;35838;49.134;9.212;2024-02-23T06:46:33;98114.44;;;7.05;100.00
49945;BME280;35838;49.134;9.212;2024-02-23T06:48:04;98110.31;;;6.96;100.00
49945;BME280;35838;49.134;9.212;2024-02-23T06:49:40;98118.47;;;6.70;100.00
49945;BME280;35838;49.134;9.212;2024-02-23T06:51:14;98109.28;;;6.56;100.00
49945;BME280;35838;49.134;9.212;2024-02-23T06:52:49;98118.44;;;6.73;100.00
49945;BME280;35838;49.134;9.212;2024-02-23T06:54:23;98109.19;;;6.61;100.00
49945;BME280;35838;49.134;9.212;2024-02-23T06:55:54;98124.63;;;6.63;100.00
49945;BME280;35838;49.134;9.212;2024-02-23T06:57:29;98115.69;;;6.29;100.00
49945;BME280;35838;49.134;9.212;2024-02-23T06:59:02;98112.78;;;6.51;100.00
49945;BME280;35838;49.134;9.212;2024-02-23T07:00:36;98116.97;;;6.58;100.00
49945;BME280;35838;49.134;9.212;2024-02-23T07:02:07;98115.94;;;6.67;100.00
49945;BME280;35838;49.134;9.212;2024-02-23T07:03:40;98114.16;;;6.70;100.00
49945;BME280;35838;49.134;9.212;2024-02-23T07:05:13;98115.06;;;6.68;100.00
49945;BME280;35838;49.134;9.212;2024-02-23T07:06:47;98116.81;;;6.66;100.00
49945;BME280;35838;49.134;9.212;2024-02-23T07:08:20;98117.72;;;6.63;100.00
49945;BME280;35838;49.134;9.212;2024-02-23T07:09:54;98110.81;;;6.65;100.00
49945;BME280;35838;49.134;9.212;2024-02-23T07:11:26;98105.75;;;6.61;100.00
49945;BME280;35838;49.134;9.212;2024-02-23T07:12:59;98113.31;;;6.70;100.00
49945;BME280;35838;49.134;9.212;2024-02-23T07:14:30;98099.41;;;6.80;100.00
49945;BME280;35838;49.134;9.212;2024-02-23T07:16:05;98100.16;;;6.85;100.00
49945;BME280;35838;49.134;9.212;2024-02-23T07:17:38;98101.13;;;6.81;100.00
49945;BME280;35838;49.134;9.212;2024-02-23T07:19:09;98106.28;;;6.81;100.00
49945;BME280;35838;49.134;9.212;2024-02-23T07:20:43;98110.56;;;6.82;100.00
49945;BME280;35838;49.134;9.212;2024-02-23T07:22:14;98108.72;;;6.87;100.00
49945;BME280;35838;49.134;9.212;2024-02-23T07:23:52;98112.88;;;6.96;100.00
49945;BME280;35838;49.134;9.212;2024-02-23T07:25:23;98118.13;;;6.92;100.00
49945;BME280;35838;49.134;9.212;2024-02-23T07:26:56;98121.63;;;6.87;100.00
49945;BME280;35838;49.134;9.212;2024-02-23T07:28:27;98115.72;;;6.81;100.00
49945;BME280;35838;49.134;9.212;2024-02-23T07:30:01;98116.47;;;6.87;100.00
49945;BME280;35838;49.134;9.212;2024-02-23T07:31:33;98107.97;;;6.82;100.00
49945;BME280;35838;49.134;9.212;2024-02-23T07:33:07;98124.31;;;6.81;100.00
49945;BME280;35838;49.134;9.212;2024-02-23T07:34:38;98117.66;;;6.69;100.00
49945;BME280;35838;49.134;9.212;2024-02-23T07:36:13;98116.59;;;6.81;100.00
49945;BME280;35838;49.134;9.212;2024-02-23T07:37:44;98115.66;;;6.84;100.00
49945;BME280;35838;49.134;9.212;2024-02-23T07:39:20;98122.69;;;6.76;100.00
49945;BME280;35838;49.134;9.212;2024-02-23T07:40:52;98117.38;;;6.83;100.00
49945;BME280;35838;49.134;9.212;2024-02-23T07:42:26;98122.50;;;6.86;100.00
49945;BME280;35838;49.134;9.212;2024-02-23T07:43:57;98128.78;;;6.70;100.00
49945;BME280;35838;49.134;9.212;2024-02-23T07:45:31;98127.00;;;6.73;100.00
49945;BME280;35838;49.134;9.212;2024-02-23T07:47:04;98120.94;;;6.76;100.00
49945;BME280;35838;49.134;9.212;2024-02-23T07:48:38;98120.88;;;6.82;100.00
49945;BME280;35838;49.134;9.212;2024-02-23T07:50:09;98126.06;;;6.79;100.00
49945;BME280;35838;49.134;9.212;2024-02-23T07:51:43;98127.81;;;6.77;100.00
49945;BME280;35838;49.134;9.212;2024-02-23T07:53:14;98121.63;;;6.87;100.00
49945;BME280;35838;49.134;9.212;2024-02-23T07:54:50;98120.00;;;6.82;100.00
49945;BME280;35838;49.134;9.212;2024-02-23T07:56:22;98115.72;;;6.81;100.00
49945;BME280;35838;49.134;9.212;2024-02-23T07:57:56;98115.63;;;6.87;100.00
49945;BME280;35838;49.134;9.212;2024-02-23T07:59:31;98114.75;;;6.86;100.00
49945;BME280;35838;49.134;9.212;2024-02-23T08:01:05;98106.97;;;6.89;100.00
49945;BME280;35838;49.134;9.212;2024-02-23T08:02:37;98107.91;;;6.85;100.00
49945;BME280;35838;49.134;9.212;2024-02-23T08:04:10;98113.06;;;6.85;100.00
49945;BME280;35838;49.134;9.212;2024-02-23T08:05:41;98111.28;;;6.89;100.00
49945;BME280;35838;49.134;9.212;2024-02-23T08:07:15;98109.13;;;6.64;100.00
49945;BME280;35838;49.134;9.212;2024-02-23T08:08:46;98115.63;;;6.34;100.00
49945;BME280;35838;49.134;9.212;2024-02-23T08:10:22;98120.47;;;6.54;100.00
49945;BME280;35838;49.134;9.212;2024-02-23T08:11:53;98112.66;;;6.60;100.00
49945;BME280;35838;49.134;9.212;2024-02-23T08:13:27;98113.66;;;6.48;100.00